Time;durP1;ratioP1;P1;durP2;ratioP2;P2;SDS_P1;SDS_P2;PMS_P1;PMS_P2;Temp;Humidity;BMP_temperature;BMP_pressure;BME280_temperature;BME280_humidity;BME280_pressure;Samples;Min_cycle;Max_cycle;Signal;HPM_P1;HPM_P2
2024/01/24 00:00:40;;;;;;;13.13;6.33;;;10.80;99.90;;;;;;5121073;28;20549;-62
2024/01/24 00:03:07;;;;;;;9.87;6.80;;;10.80;99.90;;;;;;5121124;28;20498;-61
2024/01/24 00:05:35;;;;;;;10.10;6.83;;;10.80;99.90;;;;;;5121110;28;20451;-63
2024/01/24 00:08:02;;;;;;;8.33;6.50;;;10.80;99.90;;;;;;5120888;28;20463;-62
2024/01/24 00:10:29;;;;;;;8.50;6.57;;;10.80;99.90;;;;;;5120865;27;20479;-62
2024/01/24 00:12:57;;;;;;;10.17;6.73;;;10.90;99.90;;;;;;5121169;28;20437;-62
2024/01/24 00:15:25;;;;;;;9.83;7.30;;;10.90;99.90;;;;;;5120388;28;20494;-61
2024/01/24 00:17:56;;;;;;;10.13;7.10;;;10.90;99.90;;;;;;5120628;28;20430;-62
2024/01/24 00:20:24;;;;;;;13.00;6.70;;;10.90;99.90;;;;;;5120543;28;20963;-62
2024/01/24 00:22:51;;;;;;;10.00;7.07;;;10.90;99.90;;;;;;5120714;28;20491;-61
2024/01/24 00:25:19;;;;;;;7.80;6.93;;;10.90;99.90;;;;;;5120774;28;20466;-61
2024/01/24 00:27:47;;;;;;;10.87;8.10;;;10.90;99.90;;;;;;5120237;28;20434;-61
2024/01/24 00:30:14;;;;;;;8.70;6.73;;;10.90;99.90;;;;;;5120689;28;20455;-60
2024/01/24 00:32:41;;;;;;;9.77;7.20;;;10.90;99.90;;;;;;5120597;28;20979;-59
2024/01/24 00:35:10;;;;;;;11.27;7.63;;;10.90;99.90;;;;;;5120501;28;20459;-59
2024/01/24 00:37:37;;;;;;;13.17;7.17;;;10.90;99.90;;;;;;5120395;28;20636;-59
2024/01/24 00:40:06;;;;;;;10.00;7.20;;;10.90;99.90;;;;;;5120260;28;20483;-60
2024/01/24 00:42:33;;;;;;;9.43;6.73;;;10.90;99.90;;;;;;5120211;28;20455;-60
2024/01/24 00:45:01;;;;;;;8.07;6.20;;;10.90;99.90;;;;;;5120673;28;20550;-60
2024/01/24 00:47:28;;;;;;;6.90;6.20;;;10.90;99.90;;;;;;5120497;27;20447;-60
2024/01/24 00:49:55;;;;;;;7.70;6.83;;;10.90;99.90;;;;;;5120169;28;20491;-59
2024/01/24 00:52:24;;;;;;;7.70;6.60;;;11.00;99.90;;;;;;5120198;28;20491;-60
2024/01/24 00:54:51;;;;;;;8.63;6.67;;;11.00;99.90;;;;;;5120277;28;20478;-61
2024/01/24 00:57:19;;;;;;;10.90;6.83;;;11.00;99.90;;;;;;5120164;28;20487;-61
2024/01/24 00:59:46;;;;;;;8.17;5.83;;;11.00;99.90;;;;;;5119909;28;20451;-61
2024/01/24 01:02:13;;;;;;;8.53;5.63;;;11.10;99.90;;;;;;5119805;28;20455;-61
2024/01/24 01:04:41;;;;;;;11.43;6.90;;;11.10;99.90;;;;;;5120125;28;20455;-61
2024/01/24 01:07:08;;;;;;;8.70;6.43;;;11.10;99.90;;;;;;5119965;28;20455;-61
2024/01/24 01:09:37;;;;;;;7.60;6.40;;;11.10;99.90;;;;;;5119449;28;20550;-61
2024/01/24 01:12:05;;;;;;;8.27;7.03;;;11.20;99.90;;;;;;5119704;28;20940;-62
2024/01/24 01:14:32;;;;;;;7.10;6.37;;;11.20;99.90;;;;;;5119983;28;20538;-61
2024/01/24 01:16:59;;;;;;;8.47;5.80;;;11.30;99.90;;;;;;5119403;28;20498;-60
2024/01/24 01:19:26;;;;;;;8.17;5.90;;;11.30;99.90;;;;;;5119923;28;20768;-61
2024/01/24 01:21:54;;;;;;;12.30;5.70;;;11.40;99.90;;;;;;5119558;28;20460;-62
2024/01/24 01:24:21;;;;;;;9.60;5.60;;;11.40;99.90;;;;;;5119965;28;20460;-61
2024/01/24 01:26:49;;;;;;;9.90;5.23;;;11.40;99.90;;;;;;5119466;28;20455;-62
2024/01/24 01:29:17;;;;;;;9.03;5.37;;;11.50;99.90;;;;;;5119486;28;20482;-63
2024/01/24 01:31:44;;;;;;;7.13;5.20;;;11.50;99.90;;;;;;5119458;28;20478;-63
2024/01/24 01:34:11;;;;;;;8.50;5.67;;;11.50;99.90;;;;;;5119678;28;20496;-63
2024/01/24 01:36:38;;;;;;;6.00;5.40;;;11.60;99.90;;;;;;5119390;28;20494;-64
2024/01/24 01:39:05;;;;;;;6.90;5.13;;;11.60;99.90;;;;;;5119301;28;20956;-63
2024/01/24 01:41:33;;;;;;;10.10;5.60;;;11.60;99.90;;;;;;5118834;28;20957;-63
2024/01/24 01:44:01;;;;;;;9.40;5.10;;;11.60;99.90;;;;;;5119139;28;20481;-64
2024/01/24 01:46:28;;;;;;;6.43;4.27;;;11.70;99.90;;;;;;5118961;28;20931;-64
2024/01/24 01:48:57;;;;;;;6.90;4.70;;;11.70;99.90;;;;;;5119203;28;20455;-63
2024/01/24 01:51:24;;;;;;;8.37;5.30;;;11.70;99.90;;;;;;5119138;28;20521;-65
2024/01/24 01:53:52;;;;;;;7.77;4.40;;;11.70;99.90;;;;;;5118742;28;20456;-63
2024/01/24 01:56:21;;;;;;;5.07;3.90;;;11.70;99.90;;;;;;5118920;28;20483;-64
2024/01/24 01:58:49;;;;;;;6.47;4.03;;;11.80;99.90;;;;;;5118914;28;20435;-64
2024/01/24 02:01:18;;;;;;;9.30;3.70;;;11.70;99.90;;;;;;5118836;28;20546;-64
2024/01/24 02:03:46;;;;;;;4.83;3.60;;;11.80;99.90;;;;;;5118413;28;20501;-64
2024/01/24 02:06:14;;;;;;;6.20;4.27;;;11.80;99.90;;;;;;5118205;28;20485;-65
2024/01/24 02:08:41;;;;;;;6.30;4.07;;;11.80;99.90;;;;;;5118882;28;20495;-66
2024/01/24 02:11:08;;;;;;;4.37;3.80;;;11.90;99.90;;;;;;5118250;28;20517;-65
2024/01/24 02:13:36;;;;;;;7.67;4.17;;;11.90;99.90;;;;;;5118454;28;20455;-66
2024/01/24 02:16:04;;;;;;;7.33;4.50;;;11.90;99.90;;;;;;5117846;28;20943;-65
2024/01/24 02:18:33;;;;;;;6.30;4.10;;;11.90;99.90;;;;;;5118462;28;20455;-65
2024/01/24 02:21:00;;;;;;;6.40;4.20;;;11.90;99.90;;;;;;5118791;28;20499;-65
2024/01/24 02:23:27;;;;;;;7.23;3.77;;;11.90;99.90;;;;;;5118639;28;20834;-65
2024/01/24 02:25:57;;;;;;;5.87;3.43;;;11.90;99.90;;;;;;5118230;28;20812;-65
2024/01/24 02:28:25;;;;;;;5.87;3.30;;;11.90;99.90;;;;;;5118206;28;20505;-64
2024/01/24 02:30:52;;;;;;;11.17;5.53;;;11.90;99.90;;;;;;5118665;28;20485;-62
2024/01/24 02:33:19;;;;;;;6.53;3.63;;;11.90;99.90;;;;;;5117835;28;20944;-60
2024/01/24 02:35:46;;;;;;;6.00;3.10;;;11.90;99.90;;;;;;5118272;28;20465;-62
2024/01/24 02:38:14;;;;;;;6.00;3.70;;;11.90;99.90;;;;;;5118061;28;20808;-62
2024/01/24 02:40:41;;;;;;;5.90;3.00;;;11.80;99.90;;;;;;5118454;28;20546;-61
2024/01/24 02:43:09;;;;;;;5.80;3.30;;;11.80;99.90;;;;;;5118313;28;20828;-62
2024/01/24 02:45:37;;;;;;;4.60;2.93;;;11.80;99.90;;;;;;5117760;28;20451;-62
2024/01/24 02:48:04;;;;;;;7.00;3.00;;;11.80;99.90;;;;;;5117951;28;20452;-62
2024/01/24 02:50:32;;;;;;;5.00;3.13;;;11.90;99.90;;;;;;5117904;28;20904;-63
2024/01/24 02:52:59;;;;;;;4.67;2.60;;;11.90;99.90;;;;;;5118346;28;20741;-63
2024/01/24 02:55:26;;;;;;;5.33;2.87;;;12.00;99.90;;;;;;5118042;28;20455;-63
2024/01/24 02:57:53;;;;;;;4.47;2.87;;;12.00;99.90;;;;;;5117848;28;20765;-63
2024/01/24 03:00:24;;;;;;;6.83;3.47;;;12.10;99.90;;;;;;5117449;28;20542;-63
2024/01/24 03:02:52;;;;;;;4.10;2.97;;;12.00;99.90;;;;;;5117866;28;20730;-64
2024/01/24 03:05:19;;;;;;;4.70;2.77;;;12.00;99.90;;;;;;5117887;28;20461;-64
2024/01/24 03:07:46;;;;;;;3.97;2.90;;;12.10;99.90;;;;;;5117898;28;20458;-64
2024/01/24 03:10:13;;;;;;;3.70;2.23;;;12.10;99.90;;;;;;5117395;28;20537;-64
2024/01/24 03:12:41;;;;;;;3.40;2.33;;;12.20;99.90;;;;;;5117772;28;20812;-63
2024/01/24 03:15:09;;;;;;;4.30;2.40;;;12.20;99.90;;;;;;5117774;28;20483;-63
2024/01/24 03:17:38;;;;;;;5.10;1.90;;;12.30;99.90;;;;;;5117397;28;20491;-66
2024/01/24 03:20:07;;;;;;;4.10;1.87;;;12.30;99.90;;;;;;5117593;28;20472;-63
2024/01/24 03:22:34;;;;;;;6.10;2.97;;;12.30;99.90;;;;;;5117595;28;20761;-65
2024/01/24 03:25:01;;;;;;;5.37;2.20;;;12.40;99.90;;;;;;5117659;28;20768;-63
2024/01/24 03:27:28;;;;;;;2.50;1.80;;;12.40;99.90;;;;;;5120219;28;20451;-64
2024/01/24 03:29:56;;;;;;;4.13;1.83;;;12.40;99.90;;;;;;5121860;28;20465;-65
2024/01/24 03:32:23;;;;;;;2.90;2.03;;;12.40;99.90;;;;;;5121893;28;20459;-66
2024/01/24 03:34:56;;;;;;;3.10;2.30;;;12.40;99.90;;;;;;5121602;28;20576;-65
2024/01/24 03:37:23;;;;;;;3.80;2.20;;;12.40;99.90;;;;;;5121975;28;20486;-65
2024/01/24 03:39:50;;;;;;;3.13;2.20;;;12.50;99.90;;;;;;5121679;28;20549;-65
2024/01/24 03:42:18;;;;;;;3.43;1.80;;;12.40;99.90;;;;;;5122017;28;20512;-67
2024/01/24 03:44:45;;;;;;;2.97;1.90;;;12.40;99.90;;;;;;5121748;27;20473;-65
2024/01/24 03:47:12;;;;;;;2.90;1.87;;;12.40;99.90;;;;;;5121469;28;20550;-62
2024/01/24 03:49:39;;;;;;;5.27;1.97;;;12.50;99.90;;;;;;5121294;28;20459;-64
2024/01/24 03:52:08;;;;;;;2.50;1.73;;;12.50;99.90;;;;;;5121283;28;20455;-64
2024/01/24 03:54:35;;;;;;;3.00;1.47;;;12.40;99.90;;;;;;5121289;28;20545;-62
2024/01/24 03:57:02;;;;;;;4.07;2.20;;;12.30;99.90;;;;;;5121515;28;20498;-61
2024/01/24 03:59:29;;;;;;;2.67;1.80;;;12.30;99.90;;;;;;5121467;28;20469;-62
2024/01/24 04:01:56;;;;;;;3.17;1.97;;;12.20;99.90;;;;;;5121586;28;20455;-61
2024/01/24 04:04:24;;;;;;;3.33;1.57;;;12.20;99.90;;;;;;5120682;28;20466;-62
2024/01/24 04:06:51;;;;;;;3.33;2.00;;;12.20;99.90;;;;;;5121157;28;20558;-62
2024/01/24 04:09:21;;;;;;;4.23;1.87;;;12.20;99.90;;;;;;5120965;28;20469;-63
2024/01/24 04:11:48;;;;;;;2.80;1.60;;;12.10;99.90;;;;;;5120925;28;20433;-61
2024/01/24 04:14:15;;;;;;;3.10;2.23;;;12.00;99.90;;;;;;5121105;28;20455;-61
2024/01/24 04:16:42;;;;;;;2.37;1.90;;;12.00;99.90;;;;;;5121094;28;20828;-62
2024/01/24 04:19:10;;;;;;;2.67;1.77;;;12.00;99.90;;;;;;5120953;28;20510;-61
2024/01/24 04:21:42;;;;;;;2.70;1.50;;;12.10;99.90;;;;;;5120388;28;20462;-62
2024/01/24 04:24:09;;;;;;;4.63;2.10;;;12.00;99.90;;;;;;5121088;28;20455;-61
2024/01/24 04:26:38;;;;;;;2.93;1.80;;;12.00;99.90;;;;;;5120642;28;20512;-60
2024/01/24 04:29:05;;;;;;;2.20;1.33;;;12.00;99.90;;;;;;5121153;28;20463;-61
2024/01/24 04:31:32;;;;;;;4.50;1.70;;;12.10;99.90;;;;;;5120917;28;20455;-59
2024/01/24 04:33:59;;;;;;;2.60;1.60;;;12.00;99.90;;;;;;5120284;28;20460;-61
2024/01/24 04:36:27;;;;;;;3.30;1.60;;;12.00;99.90;;;;;;5120434;28;20463;-62
2024/01/24 04:38:54;;;;;;;2.37;1.70;;;12.00;99.90;;;;;;5119671;28;20549;-61
2024/01/24 04:41:21;;;;;;;2.40;1.77;;;12.00;99.90;;;;;;5121054;28;20546;-62
2024/01/24 04:43:50;;;;;;;3.00;1.80;;;12.00;99.90;;;;;;5120039;28;20550;-63
2024/01/24 04:46:17;;;;;;;4.97;2.10;;;11.90;99.90;;;;;;5120561;28;20460;-63
2024/01/24 04:48:45;;;;;;;2.30;1.53;;;11.90;99.90;;;;;;5120332;28;20476;-63
2024/01/24 04:51:12;;;;;;;2.50;1.73;;;11.90;99.90;;;;;;5120776;28;20764;-62
2024/01/24 04:53:40;;;;;;;4.70;1.87;;;11.80;99.90;;;;;;5120063;28;20529;-62
2024/01/24 04:56:08;;;;;;;2.50;1.63;;;11.80;99.90;;;;;;5120528;28;20737;-61
2024/01/24 04:58:35;;;;;;;5.43;1.70;;;11.70;99.90;;;;;;5120367;28;20768;-57
2024/01/24 05:01:03;;;;;;;4.63;1.73;;;11.70;99.90;;;;;;5120405;28;20494;-62
2024/01/24 05:03:31;;;;;;;4.83;1.83;;;11.70;99.90;;;;;;5119780;28;20487;-61
2024/01/24 05:05:58;;;;;;;4.60;2.47;;;11.70;99.90;;;;;;5119768;28;20979;-61
2024/01/24 05:08:25;;;;;;;4.50;2.00;;;11.70;99.90;;;;;;5119781;28;20462;-59
2024/01/24 05:10:52;;;;;;;5.57;2.07;;;11.60;99.90;;;;;;5119651;28;20511;-60
2024/01/24 05:13:20;;;;;;;3.90;2.17;;;11.50;99.90;;;;;;5119921;28;20864;-63
2024/01/24 05:15:47;;;;;;;4.73;1.80;;;11.50;99.90;;;;;;5119366;28;20459;-62
2024/01/24 05:18:15;;;;;;;4.43;1.90;;;11.50;99.90;;;;;;5119929;28;20491;-60
2024/01/24 05:20:43;;;;;;;6.23;1.90;;;11.40;1.00;;;;;;5119817;28;20554;-60
2024/01/24 05:23:10;;;;;;;4.73;1.93;;;11.50;99.90;;;;;;5119986;28;20557;-60
2024/01/24 05:25:37;;;;;;;3.90;2.00;;;11.60;1.00;;;;;;5119483;28;20492;-63
2024/01/24 05:28:05;;;;;;;7.03;2.20;;;11.50;99.90;;;;;;5119713;28;20487;-60
2024/01/24 05:30:32;;;;;;;9.43;2.40;;;11.50;99.90;;;;;;5119809;28;20910;-62
2024/01/24 05:33:00;;;;;;;7.10;2.40;;;11.50;1.00;;;;;;5119620;28;20455;-63
2024/01/24 05:35:29;;;;;;;7.87;2.77;;;11.60;1.00;;;;;;5119524;28;20541;-64
2024/01/24 05:37:56;;;;;;;6.67;3.03;;;11.60;1.00;;;;;;5118955;28;20491;-65
2024/01/24 05:40:23;;;;;;;5.43;2.50;;;11.60;94.20;;;;;;5119473;28;20495;-64
2024/01/24 05:42:50;;;;;;;7.90;2.37;;;11.60;1.00;;;;;;5119607;28;20502;-66
2024/01/24 05:45:18;;;;;;;8.20;2.73;;;11.50;1.00;;;;;;5119356;28;20459;-64
2024/01/24 05:47:45;;;;;;;7.60;2.13;;;11.50;1.00;;;;;;5118745;28;20452;-65
2024/01/24 05:50:13;;;;;;;4.53;2.10;;;11.50;1.00;;;;;;5118071;28;20460;-62
2024/01/24 05:52:43;;;;;;;3.97;1.97;;;11.50;99.90;;;;;;5118794;28;20462;-65
2024/01/24 05:55:11;;;;;;;4.40;2.07;;;11.50;99.90;;;;;;5119046;28;20461;-65
2024/01/24 05:57:40;;;;;;;7.27;2.40;;;11.50;99.90;;;;;;5118929;28;20521;-62
2024/01/24 06:00:09;;;;;;;8.47;2.50;;;11.60;99.90;;;;;;5119007;28;20474;-64
2024/01/24 06:02:37;;;;;;;6.67;2.17;;;11.60;99.90;;;;;;5118826;28;20459;-63
2024/01/24 06:05:05;;;;;;;7.67;2.80;;;11.60;99.90;;;;;;5119127;28;20455;-63
2024/01/24 06:07:32;;;;;;;7.70;2.70;;;11.50;99.90;;;;;;5118819;28;20825;-64
2024/01/24 06:10:02;;;;;;;8.10;3.50;;;11.50;99.90;;;;;;5118400;28;20483;-66
2024/01/24 06:12:29;;;;;;;8.80;3.60;;;11.50;99.90;;;;;;5119159;28;20452;-65
2024/01/24 06:14:56;;;;;;;12.80;3.70;;;11.50;88.40;;;;;;5119032;28;20485;-66
2024/01/24 06:17:24;;;;;;;12.03;3.70;;;11.50;1.00;;;;;;5118606;28;20499;-68
2024/01/24 06:19:52;;;;;;;12.63;3.83;;;11.50;1.00;;;;;;5118613;28;20562;-61
2024/01/24 06:22:19;;;;;;;15.87;4.23;;;11.40;1.00;;;;;;5118755;28;20463;-65
2024/01/24 06:24:47;;;;;;;17.60;3.70;;;11.50;1.00;;;;;;5118479;28;20556;-67
2024/01/24 06:27:15;;;;;;;9.97;4.00;;;11.50;1.00;;;;;;5118656;28;20426;-68
2024/01/24 06:29:43;;;;;;;8.43;3.60;;;11.40;1.00;;;;;;5118472;28;20813;-66
2024/01/24 06:32:10;;;;;;;10.33;4.23;;;11.40;1.00;;;;;;5118143;28;20452;-67
2024/01/24 06:34:38;;;;;;;12.80;3.90;;;11.40;1.00;;;;;;5118345;28;20802;-71
2024/01/24 06:37:05;;;;;;;10.50;3.67;;;11.40;1.00;;;;;;5118044;27;20456;-71
2024/01/24 06:39:32;;;;;;;9.20;3.87;;;11.40;1.00;;;;;;5118106;28;20797;-72
2024/01/24 06:42:00;;;;;;;15.73;3.50;;;11.30;1.00;;;;;;5118263;28;20455;-72
2024/01/24 06:44:29;;;;;;;9.80;3.27;;;11.30;1.00;;;;;;5115653;28;20519;-72
2024/01/24 06:46:56;;;;;;;10.70;3.93;;;11.30;1.00;;;;;;5115120;28;20470;-73
2024/01/24 06:49:23;;;;;;;12.27;3.73;;;11.30;1.00;;;;;;5116649;28;20466;-70
2024/01/24 06:51:50;;;;;;;10.13;3.10;;;11.30;1.00;;;;;;5116625;28;20493;-72
2024/01/24 06:54:18;;;;;;;7.83;3.27;;;11.30;1.00;;;;;;5116744;28;20459;-73
2024/01/24 06:56:45;;;;;;;12.73;3.50;;;11.30;1.00;;;;;;5117558;28;20454;-70
2024/01/24 06:59:13;;;;;;;11.80;4.00;;;11.30;1.00;;;;;;5116057;28;20483;-72
2024/01/24 07:01:42;;;;;;;10.83;3.30;;;11.20;16.60;;;;;;5115488;28;20467;-71
2024/01/24 07:04:10;;;;;;;16.13;4.50;;;11.20;99.90;;;;;;5116416;28;20518;-69
2024/01/24 07:06:37;;;;;;;23.27;5.30;;;11.10;95.80;;;;;;5116609;28;20763;-68
2024/01/24 07:09:04;;;;;;;11.83;4.00;;;11.20;1.00;;;;;;5116655;28;20857;-71
2024/01/24 07:11:33;;;;;;;15.37;4.43;;;11.20;1.00;;;;;;5116563;28;21016;-72
2024/01/24 07:14:00;;;;;;;17.40;4.90;;;11.20;1.00;;;;;;5116369;28;20459;-71
2024/01/24 07:16:27;;;;;;;20.43;4.53;;;11.10;99.90;;;;;;5117002;28;20507;-72
2024/01/24 07:18:56;;;;;;;21.27;6.00;;;10.90;99.90;;;;;;5117084;28;20518;-71
2024/01/24 07:21:24;;;;;;;13.67;4.93;;;10.90;99.90;;;;;;5118619;28;20590;-71
2024/01/24 07:23:52;;;;;;;19.13;5.10;;;10.80;99.90;;;;;;5117592;28;20463;-74
2024/01/24 07:26:19;;;;;;;16.90;5.50;;;10.80;1.00;;;;;;5118493;28;20460;-67
2024/01/24 07:28:46;;;;;;;15.37;4.80;;;10.80;1.00;;;;;;5118272;28;20491;-68
2024/01/24 07:31:14;;;;;;;19.93;5.67;;;10.80;1.00;;;;;;5118074;28;20462;-68
2024/01/24 07:33:44;;;;;;;21.80;5.80;;;10.90;1.00;;;;;;5116973;28;20546;-69
2024/01/24 07:36:13;;;;;;;16.37;5.43;;;10.80;1.00;;;;;;5117295;28;20614;-70
2024/01/24 07:38:41;;;;;;;17.10;4.83;;;10.80;1.00;;;;;;5117209;28;20502;-69
2024/01/24 07:41:09;;;;;;;14.80;5.83;;;10.80;1.00;;;;;;5117031;28;20463;-70
2024/01/24 07:43:36;;;;;;;17.00;4.90;;;10.70;1.00;;;;;;5117351;28;20868;-70
2024/01/24 07:46:04;;;;;;;22.13;6.00;;;10.70;99.90;;;;;;5117478;28;20459;-70
2024/01/24 07:48:31;;;;;;;16.83;4.43;;;10.70;1.00;;;;;;5117607;28;20447;-69
2024/01/24 07:50:59;;;;;;;21.13;5.17;;;10.70;1.00;;;;;;5117841;28;20455;-75
2024/01/24 07:53:29;;;;;;;20.30;7.97;;;10.70;1.00;;;;;;5115955;28;20930;-68
2024/01/24 07:55:56;;;;;;;19.27;5.33;;;10.70;1.00;;;;;;5117418;28;20513;-70
2024/01/24 07:58:23;;;;;;;22.20;6.20;;;10.70;1.00;;;;;;5117502;28;20491;-68
2024/01/24 08:00:51;;;;;;;15.27;5.80;;;10.60;1.00;;;;;;5117520;28;20504;-72
2024/01/24 08:03:19;;;;;;;16.07;4.97;;;10.60;99.90;;;;;;5117669;28;20513;-68
2024/01/24 08:05:46;;;;;;;22.87;5.43;;;10.60;20.00;;;;;;5117111;28;20456;-67
2024/01/24 08:08:14;;;;;;;19.57;5.70;;;10.60;1.00;;;;;;5117754;28;20493;-68
2024/01/24 08:10:43;;;;;;;26.10;6.30;;;10.60;1.00;;;;;;5116974;28;20487;-70
2024/01/24 08:13:10;;;;;;;19.43;5.53;;;10.60;1.00;;;;;;5117837;28;20896;-69
2024/01/24 08:15:38;;;;;;;22.47;6.57;;;10.60;99.90;;;;;;5120470;28;20459;-68
2024/01/24 08:18:07;;;;;;;22.23;5.67;;;10.50;99.90;;;;;;5119466;28;20939;-69
2024/01/24 08:20:35;;;;;;;29.00;7.97;;;10.50;99.90;;;;;;5118810;28;20523;-70
2024/01/24 08:23:02;;;;;;;17.00;5.50;;;10.50;99.90;;;;;;5118415;28;20957;-68
2024/01/24 08:25:29;;;;;;;21.23;6.30;;;10.50;99.90;;;;;;5118852;28;20557;-69
2024/01/24 08:27:58;;;;;;;32.63;6.60;;;10.60;99.90;;;;;;5119314;28;20459;-68
2024/01/24 08:30:26;;;;;;;20.27;5.63;;;10.50;32.60;;;;;;5119174;28;20787;-69
2024/01/24 08:32:54;;;;;;;21.17;5.40;;;10.50;1.00;;;;;;5119904;28;20466;-70
2024/01/24 08:35:21;;;;;;;23.87;6.50;;;10.40;1.00;;;;;;5118064;28;20493;-67
2024/01/24 08:37:49;;;;;;;19.40;6.17;;;10.40;1.00;;;;;;5118290;28;20459;-64
2024/01/24 08:40:17;;;;;;;20.87;5.70;;;10.50;1.00;;;;;;5119047;28;20455;-67
2024/01/24 08:42:46;;;;;;;15.33;5.27;;;10.40;1.00;;;;;;5119176;28;20466;-64
2024/01/24 08:45:15;;;;;;;19.77;6.83;;;10.40;1.00;;;;;;5120020;28;20517;-68
2024/01/24 08:47:43;;;;;;;17.77;5.50;;;10.50;1.00;;;;;;5120310;28;20495;-68
2024/01/24 08:50:11;;;;;;;26.17;6.60;;;10.50;1.00;;;;;;5119334;28;20459;-69
2024/01/24 08:52:39;;;;;;;20.67;6.43;;;10.50;1.00;;;;;;5120001;28;20732;-68
2024/01/24 08:55:08;;;;;;;25.77;7.20;;;10.50;8.10;;;;;;5121169;27;20796;-68
2024/01/24 08:57:36;;;;;;;19.70;7.17;;;10.50;99.90;;;;;;5120731;28;20558;-69
2024/01/24 09:00:04;;;;;;;23.67;7.10;;;10.40;99.90;;;;;;5121040;28;20491;-68
2024/01/24 09:02:33;;;;;;;31.47;8.93;;;10.20;99.90;;;;;;5120625;28;20957;-67
2024/01/24 09:05:03;;;;;;;22.43;6.90;;;10.10;1.00;;;;;;5120964;28;20464;-70
2024/01/24 09:07:30;;;;;;;18.47;6.20;;;10.10;1.00;;;;;;5113181;28;20460;-71
2024/01/24 09:09:58;;;;;;;27.30;8.43;;;10.00;26.40;;;;;;5098701;28;20880;-67
2024/01/24 09:12:25;;;;;;;24.67;6.27;;;10.10;99.90;;;;;;5098734;28;20513;-68
2024/01/24 09:14:53;;;;;;;29.73;7.73;;;10.10;99.90;;;;;;5099368;28;20460;-70
2024/01/24 09:17:21;;;;;;;25.33;8.30;;;10.20;99.90;;;;;;5098173;28;20460;-70
2024/01/24 09:19:50;;;;;;;27.50;8.60;;;10.20;99.90;;;;;;5099001;28;20492;-68
2024/01/24 09:22:18;;;;;;;20.13;6.37;;;10.30;1.00;;;;;;5098374;28;20460;-71
2024/01/24 09:24:47;;;;;;;20.27;6.30;;;10.30;99.90;;;;;;5099129;28;20495;-73
2024/01/24 09:27:14;;;;;;;21.57;6.33;;;10.40;1.00;;;;;;5099553;28;20730;-70
2024/01/24 09:29:42;;;;;;;26.40;7.00;;;10.40;1.00;;;;;;5098788;28;20499;-68
2024/01/24 09:32:09;;;;;;;21.30;7.40;;;10.40;1.00;;;;;;5098572;28;20518;-68
2024/01/24 09:34:37;;;;;;;23.33;6.73;;;10.30;1.00;;;;;;5098629;28;20471;-67
2024/01/24 09:37:06;;;;;;;22.40;7.27;;;10.30;1.00;;;;;;5099207;28;20924;-68
2024/01/24 09:39:34;;;;;;;23.00;6.40;;;10.30;1.00;;;;;;5098715;28;20526;-67
2024/01/24 09:42:04;;;;;;;30.97;7.40;;;10.40;1.00;;;;;;5098360;28;20460;-67
2024/01/24 09:44:34;;;;;;;24.50;7.50;;;10.30;1.00;;;;;;5098756;28;20456;-68
2024/01/24 09:47:02;;;;;;;21.43;7.27;;;10.40;1.00;;;;;;5099262;28;20465;-68
2024/01/24 09:49:32;;;;;;;24.77;7.07;;;10.40;99.90;;;;;;5098864;28;20473;-67
2024/01/24 09:52:00;;;;;;;23.53;7.37;;;10.50;99.90;;;;;;5099286;28;20957;-68
2024/01/24 09:54:32;;;;;;;29.50;7.67;;;10.50;99.90;;;;;;5099250;28;20456;-67
2024/01/24 09:57:01;;;;;;;24.70;7.50;;;10.50;99.90;;;;;;5104356;28;20521;-67
2024/01/24 09:59:28;;;;;;;23.97;7.97;;;10.50;99.90;;;;;;5101575;28;20495;-67
2024/01/24 10:01:56;;;;;;;24.30;8.00;;;10.50;99.90;;;;;;5100569;28;20464;-67
2024/01/24 10:04:26;;;;;;;23.00;6.33;;;10.60;99.90;;;;;;5106687;28;20426;-67
2024/01/24 10:06:54;;;;;;;28.77;6.83;;;10.50;99.90;;;;;;5122718;28;20464;-68
2024/01/24 10:09:21;;;;;;;21.13;7.47;;;10.60;99.90;;;;;;5123835;28;20459;-68
2024/01/24 10:11:50;;;;;;;26.20;8.53;;;10.50;99.90;;;;;;5121155;28;20464;-67
2024/01/24 10:14:19;;;;;;;27.13;6.90;;;10.60;99.90;;;;;;5122612;28;20455;-66
2024/01/24 10:16:47;;;;;;;23.07;7.40;;;10.60;1.00;;;;;;5122511;28;20811;-70
2024/01/24 10:19:14;;;;;;;23.37;6.53;;;10.60;1.00;;;;;;5126882;27;20522;-67
2024/01/24 10:21:42;;;;;;;17.83;7.00;;;10.60;1.00;;;;;;5121095;28;20460;-69
2024/01/24 10:24:11;;;;;;;22.27;6.97;;;10.50;1.00;;;;;;5123056;28;20545;-67
2024/01/24 10:26:38;;;;;;;31.00;8.80;;;10.50;1.00;;;;;;5123046;28;20462;-67
2024/01/24 10:29:08;;;;;;;26.23;6.87;;;10.50;1.00;;;;;;5123245;28;20530;-67
2024/01/24 10:31:35;;;;;;;25.20;7.40;;;10.50;1.00;;;;;;5121068;28;20451;-68
2024/01/24 10:34:06;;;;;;;27.53;7.80;;;10.50;1.00;;;;;;5123823;28;20447;-68
2024/01/24 10:36:35;;;;;;;26.03;8.30;;;10.50;1.00;;;;;;5118871;28;20940;-71
2024/01/24 10:39:04;;;;;;;26.80;7.63;;;10.50;99.90;;;;;;5122305;28;20487;-67
2024/01/24 10:41:37;;;;;;;23.33;7.43;;;10.50;99.90;;;;;;5125608;28;20459;-70
2024/01/24 10:44:09;;;;;;;22.03;6.67;;;10.50;99.90;;;;;;5124170;28;20463;-66
2024/01/24 10:46:38;;;;;;;28.43;6.80;;;10.50;99.90;;;;;;5121218;28;20460;-67
2024/01/24 10:49:05;;;;;;;26.73;6.67;;;10.50;99.90;;;;;;5118793;28;20456;-70
2024/01/24 10:51:33;;;;;;;24.77;7.33;;;10.50;99.90;;;;;;5122116;28;20456;-67
2024/01/24 10:54:03;;;;;;;22.30;6.57;;;10.50;99.90;;;;;;5126149;28;20916;-66
2024/01/24 10:56:33;;;;;;;21.27;7.70;;;10.50;99.90;;;;;;5126614;28;20511;-65
2024/01/24 10:59:03;;;;;;;26.20;7.00;;;10.50;99.90;;;;;;5122469;28;20490;-64
2024/01/24 11:01:31;;;;;;;21.97;7.53;;;10.50;99.90;;;;;;5122117;28;20528;-68
2024/01/24 11:04:00;;;;;;;29.97;7.93;;;10.50;99.90;;;;;;5122321;28;20455;-66
2024/01/24 11:06:30;;;;;;;36.83;7.13;;;10.50;99.90;;;;;;5120303;28;20452;-68
2024/01/24 11:09:05;;;;;;;21.20;7.73;;;10.50;99.90;;;;;;5121884;28;20452;-67
2024/01/24 11:11:36;;;;;;;27.33;7.30;;;10.60;99.90;;;;;;5119746;28;20539;-67
2024/01/24 11:14:04;;;;;;;24.13;6.67;;;10.60;99.90;;;;;;5122745;28;20459;-70
2024/01/24 11:16:37;;;;;;;20.93;6.67;;;10.50;99.90;;;;;;5122025;28;20727;-66
2024/01/24 11:19:21;;;;;;;29.33;7.50;;;10.60;99.90;;;;;;5123376;28;20491;-63
2024/01/24 11:21:48;;;;;;;26.83;6.97;;;10.50;99.90;;;;;;5119137;28;20454;-66
2024/01/24 11:24:50;;;;;;;24.13;7.17;;;10.60;99.90;;;;;;5124038;28;20463;-67
2024/01/24 11:27:32;;;;;;;31.27;8.33;;;10.70;99.90;;;;;;5122524;28;20794;-66
2024/01/24 11:30:05;;;;;;;21.03;7.00;;;10.70;99.90;;;;;;5119594;28;20455;-68
2024/01/24 11:33:01;;;;;;;18.93;6.87;;;10.60;99.90;;;;;;5119416;28;20452;-69
2024/01/24 11:35:40;;;;;;;22.67;7.20;;;10.60;99.90;;;;;;5124169;28;20467;-68
2024/01/24 11:38:08;;;;;;;25.33;7.90;;;10.60;99.90;;;;;;5121383;28;20504;-65
2024/01/24 11:40:37;;;;;;;25.27;8.30;;;10.60;99.90;;;;;;5120007;28;20488;-66
2024/01/24 11:43:05;;;;;;;22.23;6.27;;;10.60;99.90;;;;;;5119391;28;20504;-66
2024/01/24 11:45:35;;;;;;;23.03;7.20;;;10.60;99.90;;;;;;5119548;28;20953;-67
2024/01/24 11:48:09;;;;;;;26.13;7.43;;;10.50;99.90;;;;;;5122432;28;20462;-69
2024/01/24 11:50:36;;;;;;;22.37;7.20;;;10.50;99.90;;;;;;5127299;27;20570;-68
2024/01/24 11:53:04;;;;;;;27.57;6.97;;;10.50;99.90;;;;;;5125217;28;20466;-66
2024/01/24 11:55:32;;;;;;;28.60;7.23;;;10.40;99.90;;;;;;5125908;28;20876;-65
2024/01/24 11:58:02;;;;;;;24.57;8.03;;;10.40;99.90;;;;;;5129427;28;20545;-67
2024/01/24 12:00:30;;;;;;;26.00;7.87;;;10.50;99.90;;;;;;5124622;28;20532;-64
2024/01/24 12:02:57;;;;;;;18.10;6.23;;;10.50;99.90;;;;;;5127449;28;20455;-67
2024/01/24 12:05:26;;;;;;;28.17;8.30;;;10.50;99.90;;;;;;5127470;28;20794;-66
2024/01/24 12:07:54;;;;;;;22.20;7.27;;;10.50;99.90;;;;;;5124161;28;20459;-66
2024/01/24 12:10:21;;;;;;;27.87;6.87;;;10.50;99.90;;;;;;5124870;28;20479;-66
2024/01/24 12:12:50;;;;;;;23.17;7.20;;;10.60;99.90;;;;;;5127437;28;20868;-66
2024/01/24 12:15:18;;;;;;;22.17;6.50;;;10.60;99.90;;;;;;5126184;28;20463;-65
2024/01/24 12:17:46;;;;;;;19.23;6.50;;;10.60;99.90;;;;;;5122249;28;20451;-69
2024/01/24 12:20:18;;;;;;;20.90;7.70;;;10.50;99.90;;;;;;5122491;28;20587;-67
2024/01/24 12:22:47;;;;;;;21.40;6.30;;;10.50;99.90;;;;;;5125049;28;20487;-64
2024/01/24 12:25:15;;;;;;;20.90;6.20;;;10.50;99.90;;;;;;5123123;28;20656;-68
2024/01/24 12:27:42;;;;;;;18.90;7.67;;;10.50;99.90;;;;;;5123229;28;20456;-66
2024/01/24 12:30:11;;;;;;;21.13;7.37;;;10.60;99.90;;;;;;5123817;27;20534;-65
2024/01/24 12:32:39;;;;;;;23.70;7.17;;;10.70;99.90;;;;;;5123395;28;20458;-67
2024/01/24 12:35:07;;;;;;;24.97;7.10;;;10.80;99.90;;;;;;5124040;28;20487;-65
2024/01/24 12:37:38;;;;;;;20.93;6.90;;;10.80;99.90;;;;;;5125581;28;20455;-65
2024/01/24 12:40:10;;;;;;;23.40;6.13;;;10.80;99.90;;;;;;5121617;28;20487;-68
2024/01/24 12:42:38;;;;;;;33.63;8.13;;;10.70;99.90;;;;;;5124202;28;20480;-68
2024/01/24 12:45:11;;;;;;;21.70;8.00;;;10.70;99.90;;;;;;5119485;28;20468;-67
2024/01/24 12:47:39;;;;;;;22.80;7.13;;;10.70;99.90;;;;;;5120082;28;20487;-67